createdAt,value
2017-02-17T00:00:31.432Z,16.48
2017-02-17T00:01:40.439Z,16.67
2017-02-17T00:02:49.471Z,16.65
2017-02-17T00:03:58.480Z,16.52
2017-02-17T00:05:07.493Z,16.44
2017-02-17T00:06:16.516Z,16.45
2017-02-17T00:07:25.541Z,16.4
2017-02-17T00:08:34.584Z,16.32
2017-02-17T00:09:43.588Z,16.3
2017-02-17T00:10:52.628Z,16.27
2017-02-17T00:12:01.660Z,16.25
2017-02-17T00:13:10.699Z,16.23
2017-02-17T00:14:19.763Z,16.17
2017-02-17T00:15:28.782Z,16.25
2017-02-17T00:16:37.809Z,16.25
2017-02-17T00:17:46.816Z,16.29
2017-02-17T00:18:56.266Z,16.25
2017-02-17T00:20:05.274Z,16.2
2017-02-17T00:21:14.287Z,16.15
2017-02-17T00:22:23.340Z,16.14
2017-02-17T00:23:32.369Z,16.15
2017-02-17T00:24:41.377Z,16.11
2017-02-17T00:25:50.402Z,16.07
2017-02-17T00:26:59.426Z,16.06
2017-02-17T00:28:08.423Z,16.01
2017-02-17T00:29:18.874Z,16.01
2017-02-17T00:30:27.913Z,16.04
2017-02-17T00:31:36.972Z,16
2017-02-17T00:32:46.035Z,16.01
2017-02-17T00:33:55.098Z,15.96
2017-02-17T00:35:04.158Z,15.97
2017-02-17T00:36:13.206Z,15.99
2017-02-17T00:37:22.260Z,16.01
2017-02-17T00:38:31.340Z,15.94
2017-02-17T00:39:40.388Z,15.97
2017-02-17T00:40:49.446Z,15.96
2017-02-17T00:41:58.631Z,16
2017-02-17T00:43:07.681Z,15.99
2017-02-17T00:44:17.157Z,15.89
2017-02-17T00:45:26.206Z,15.84
2017-02-17T00:46:35.219Z,15.78
2017-02-17T00:47:44.217Z,15.69
2017-02-17T00:48:53.215Z,15.67
2017-02-17T00:50:02.240Z,15.78
2017-02-17T00:51:11.269Z,15.71
2017-02-17T00:52:20.287Z,15.71
2017-02-17T00:53:29.310Z,15.74
2017-02-17T00:54:38.310Z,15.66
2017-02-17T00:55:47.336Z,15.78
2017-02-17T00:56:56.340Z,15.73
2017-02-17T00:58:05.374Z,15.74
2017-02-17T00:59:14.409Z,15.69
2017-02-17T01:00:23.439Z,15.67
2017-02-17T01:01:32.439Z,15.64
2017-02-17T01:02:41.439Z,15.63
2017-02-17T01:03:50.480Z,15.59
2017-02-17T01:04:59.489Z,15.51
2017-02-17T01:06:08.510Z,15.59
2017-02-17T01:07:17.534Z,15.56
2017-02-17T01:08:26.591Z,15.61
2017-02-17T01:09:35.629Z,15.53
2017-02-17T01:10:44.628Z,15.45
2017-02-17T01:11:53.656Z,15.42
2017-02-17T01:13:02.670Z,15.41
2017-02-17T01:14:12.943Z,15.33
2017-02-17T01:15:21.977Z,15.33
2017-02-17T01:16:31.004Z,15.18
2017-02-17T01:17:40.022Z,15.26
2017-02-17T01:18:49.062Z,15.26
2017-02-17T01:19:58.074Z,15.33
2017-02-17T01:21:07.091Z,15.28
2017-02-17T01:22:16.098Z,15.33
2017-02-17T01:23:25.120Z,15.28
2017-02-17T01:24:34.141Z,15.21
2017-02-17T01:25:43.165Z,15.21
2017-02-17T01:26:52.179Z,15.3
2017-02-17T01:28:01.173Z,15.26
2017-02-17T01:29:10.218Z,15.26
2017-02-17T01:30:19.215Z,15.27
2017-02-17T01:31:28.232Z,15.23
2017-02-17T01:32:37.275Z,15.27
2017-02-17T01:33:46.275Z,15.26
2017-02-17T01:34:55.298Z,15.23
2017-02-17T01:36:04.346Z,15.15
2017-02-17T01:37:13.370Z,15.13
2017-02-17T01:38:22.391Z,15.15
2017-02-17T01:39:31.424Z,15.13
2017-02-17T01:40:40.444Z,15.23
2017-02-17T01:41:49.476Z,15.16
2017-02-17T01:42:58.487Z,15.12
2017-02-17T01:44:07.536Z,15.21
2017-02-17T01:45:16.565Z,15.27
2017-02-17T01:46:25.592Z,15.19
2017-02-17T01:47:34.637Z,15.21
2017-02-17T01:48:43.643Z,15.13
2017-02-17T01:49:52.653Z,15.24
2017-02-17T01:51:01.655Z,15.11
2017-02-17T01:52:10.669Z,15.06
2017-02-17T01:53:19.703Z,15.15
2017-02-17T01:54:28.727Z,15.08
2017-02-17T01:55:37.739Z,15.15
2017-02-17T01:56:46.760Z,15.05
2017-02-17T01:57:55.771Z,15.05
2017-02-17T01:59:04.781Z,15.06
2017-02-17T02:00:13.794Z,15.01
2017-02-17T02:01:22.821Z,15.12
2017-02-17T02:02:31.848Z,15.04
2017-02-17T02:03:40.863Z,14.91
2017-02-17T02:04:49.871Z,14.87
2017-02-17T02:05:58.893Z,14.87
2017-02-17T02:07:07.907Z,14.86
2017-02-17T02:08:16.921Z,14.82
2017-02-17T02:09:25.949Z,14.87
2017-02-17T02:10:34.983Z,14.91
2017-02-17T02:11:44.001Z,14.87
2017-02-17T02:12:53.424Z,14.75
2017-02-17T02:14:02.453Z,14.65
2017-02-17T02:15:11.455Z,14.71
2017-02-17T02:16:20.468Z,14.79
2017-02-17T02:17:29.492Z,14.86
2017-02-17T02:18:38.505Z,14.8
2017-02-17T02:19:47.933Z,14.8
2017-02-17T02:20:57.361Z,14.79
2017-02-17T02:22:06.361Z,14.84
2017-02-17T02:23:15.363Z,14.68
2017-02-17T02:24:24.381Z,14.71
2017-02-17T02:25:33.387Z,14.8
2017-02-17T02:26:42.415Z,14.75
2017-02-17T02:27:51.434Z,14.8
2017-02-17T02:29:00.445Z,14.78
2017-02-17T02:30:09.464Z,14.8
2017-02-17T02:31:18.478Z,14.8
2017-02-17T02:32:27.506Z,14.8
2017-02-17T02:33:36.935Z,14.84
2017-02-17T02:34:45.946Z,14.86
2017-02-17T02:35:54.962Z,14.8
2017-02-17T02:37:03.980Z,14.78
2017-02-17T02:38:12.982Z,14.67
2017-02-17T02:39:22.000Z,14.72
2017-02-17T02:40:31.019Z,14.72
2017-02-17T02:41:40.059Z,14.71
2017-02-17T02:42:49.058Z,14.67
2017-02-17T02:43:58.062Z,14.67
2017-02-17T02:45:07.490Z,14.65
2017-02-17T02:46:16.501Z,14.6
2017-02-17T02:47:25.512Z,14.68
2017-02-17T02:48:34.529Z,14.59
2017-02-17T02:49:43.551Z,14.62
2017-02-17T02:50:52.561Z,14.62
2017-02-17T02:52:01.592Z,14.6
2017-02-17T02:53:11.032Z,14.59
2017-02-17T02:54:20.040Z,14.57
2017-02-17T02:55:29.046Z,14.59
2017-02-17T02:56:38.073Z,14.57
2017-02-17T02:57:47.086Z,14.57
2017-02-17T02:58:56.127Z,14.59
2017-02-17T03:00:05.148Z,14.59
2017-02-17T03:01:14.166Z,14.65
2017-02-17T03:02:23.168Z,14.53
2017-02-17T03:03:32.181Z,14.57
2017-02-17T03:04:41.204Z,14.6
2017-02-17T03:05:50.239Z,14.57
2017-02-17T03:06:59.257Z,14.62
2017-02-17T03:08:08.259Z,14.49
2017-02-17T03:09:17.273Z,14.39
2017-02-17T03:10:26.309Z,14.42
2017-02-17T03:11:38.805Z,14.42
2017-02-17T03:12:47.859Z,14.41
2017-02-17T03:13:56.898Z,14.49
2017-02-17T03:15:05.967Z,14.42
2017-02-17T03:16:15.034Z,14.41
2017-02-17T03:17:24.075Z,14.42
2017-02-17T03:18:33.127Z,14.42
2017-02-17T03:19:42.157Z,14.47
2017-02-17T03:20:51.201Z,14.41
2017-02-17T03:22:00.250Z,14.37
2017-02-17T03:23:09.292Z,14.35
2017-02-17T03:24:18.349Z,14.37
2017-02-17T03:25:27.398Z,14.39
2017-02-17T03:26:36.425Z,14.37
2017-02-17T03:27:45.856Z,14.37
2017-02-17T03:28:54.858Z,14.32
2017-02-17T03:30:04.293Z,14.37
2017-02-17T03:31:13.306Z,14.39
2017-02-17T03:32:22.330Z,14.35
2017-02-17T03:33:31.322Z,14.42
2017-02-17T03:34:40.347Z,14.39
2017-02-17T03:35:49.778Z,14.22
2017-02-17T03:36:58.795Z,14.24
2017-02-17T03:38:07.805Z,14.34
2017-02-17T03:39:16.815Z,14.24
2017-02-17T03:40:26.231Z,14.2
2017-02-17T03:41:35.260Z,14.31
2017-02-17T03:42:44.257Z,14.22
2017-02-17T03:43:53.271Z,14.32
2017-02-17T03:45:02.291Z,14.17
2017-02-17T03:46:11.314Z,14.22
2017-02-17T03:47:20.742Z,14.24
2017-02-17T03:48:29.755Z,14.26
2017-02-17T03:49:38.767Z,14.3
2017-02-17T03:50:47.779Z,14.28
2017-02-17T03:51:56.829Z,14.28
2017-02-17T03:53:05.848Z,14.22
2017-02-17T03:54:14.859Z,14.22
2017-02-17T03:55:23.868Z,14.09
2017-02-17T03:56:32.894Z,14.19
2017-02-17T03:57:41.907Z,14.2
2017-02-17T03:58:50.914Z,14.09
2017-02-17T03:59:59.926Z,14.2
2017-02-17T04:01:08.939Z,14.1
2017-02-17T04:02:18.357Z,14.19
2017-02-17T04:03:27.376Z,14.17
2017-02-17T04:04:36.991Z,14.13
2017-02-17T04:05:46.079Z,14.02
2017-02-17T04:06:55.542Z,14.13
2017-02-17T04:08:04.562Z,14.01
2017-02-17T04:09:13.588Z,14.1
2017-02-17T04:10:22.614Z,13.97
2017-02-17T04:11:32.072Z,14.02
2017-02-17T04:12:41.139Z,13.99
2017-02-17T04:13:50.577Z,13.99
2017-02-17T04:14:59.576Z,14.02
2017-02-17T04:16:09.014Z,14.04
2017-02-17T04:17:18.023Z,13.97
2017-02-17T04:18:27.470Z,13.91
2017-02-17T04:19:36.485Z,13.97
2017-02-17T04:20:45.481Z,13.94
2017-02-17T04:21:54.486Z,13.99
2017-02-17T04:23:03.496Z,13.98
2017-02-17T04:24:12.517Z,13.92
2017-02-17T04:25:21.544Z,13.98
2017-02-17T04:26:30.564Z,13.94
2017-02-17T04:27:39.589Z,14.02
2017-02-17T04:28:48.608Z,13.98
2017-02-17T04:29:57.629Z,13.98
2017-02-17T04:31:06.648Z,13.99
2017-02-17T04:32:16.078Z,14.01
2017-02-17T04:33:25.112Z,14.01
2017-02-17T04:34:34.554Z,14.01
2017-02-17T04:35:43.566Z,14.1
2017-02-17T04:36:53.008Z,14.14
2017-02-17T04:38:02.051Z,14.02
2017-02-17T04:39:11.068Z,14.01
2017-02-17T04:40:20.497Z,14.1
2017-02-17T04:41:29.507Z,14.1
2017-02-17T04:42:38.527Z,14.05
2017-02-17T04:43:47.539Z,14.05
2017-02-17T04:44:56.562Z,14.09
2017-02-17T04:46:05.566Z,14.1
2017-02-17T04:47:14.569Z,14.12
2017-02-17T04:48:23.586Z,14.1
2017-02-17T04:49:32.618Z,14.09
2017-02-17T04:50:42.045Z,14.12
2017-02-17T04:51:51.050Z,14.06
2017-02-17T04:53:00.053Z,14.13
2017-02-17T04:54:09.087Z,14.06
2017-02-17T04:55:18.100Z,14.06
2017-02-17T04:56:27.129Z,14.1
2017-02-17T04:57:36.144Z,14.06
2017-02-17T04:58:45.151Z,14.02
2017-02-17T04:59:54.154Z,13.98
2017-02-17T05:01:03.184Z,13.94
2017-02-17T05:02:12.217Z,13.97
2017-02-17T05:03:21.237Z,13.97
2017-02-17T05:04:30.258Z,13.84
2017-02-17T05:05:39.271Z,13.79
2017-02-17T05:06:48.289Z,13.87
2017-02-17T05:07:57.734Z,13.83
2017-02-17T05:09:06.760Z,13.79
2017-02-17T05:10:15.768Z,13.73
2017-02-17T05:11:24.797Z,13.79
2017-02-17T05:12:33.816Z,13.74
2017-02-17T05:13:43.668Z,13.68
2017-02-17T05:14:52.691Z,13.69
2017-02-17T05:16:01.747Z,13.65
2017-02-17T05:17:10.738Z,13.64
2017-02-17T05:18:19.770Z,13.66
2017-02-17T05:19:28.783Z,13.68
2017-02-17T05:20:37.805Z,13.66
2017-02-17T05:21:47.245Z,13.61
2017-02-17T05:22:56.253Z,13.59
2017-02-17T05:24:05.281Z,13.61
2017-02-17T05:25:14.309Z,13.65
2017-02-17T05:26:23.321Z,13.65
2017-02-17T05:27:32.342Z,13.66
2017-02-17T05:28:41.370Z,13.76
2017-02-17T05:29:50.412Z,13.79
2017-02-17T05:30:59.425Z,13.84
2017-02-17T05:32:08.880Z,13.86
2017-02-17T05:33:18.310Z,13.83
2017-02-17T05:34:27.723Z,13.8
2017-02-17T05:35:36.745Z,13.74
2017-02-17T05:36:45.757Z,13.8
2017-02-17T05:37:54.793Z,13.76
2017-02-17T05:39:03.793Z,13.74
2017-02-17T05:40:12.829Z,13.81
2017-02-17T05:41:21.856Z,13.8
2017-02-17T05:42:30.912Z,13.77
2017-02-17T05:43:39.920Z,13.83
2017-02-17T05:44:48.933Z,13.8
2017-02-17T05:45:57.951Z,13.84
2017-02-17T05:47:06.980Z,13.79
2017-02-17T05:48:15.975Z,13.77
2017-02-17T05:49:24.991Z,13.76
2017-02-17T05:50:34.005Z,13.77
2017-02-17T05:51:43.027Z,13.79
2017-02-17T05:52:52.046Z,13.69
2017-02-17T05:54:01.049Z,13.65
2017-02-17T05:55:10.063Z,13.68
2017-02-17T05:56:19.092Z,13.68
2017-02-17T05:57:28.141Z,13.66
2017-02-17T05:58:37.145Z,13.68
2017-02-17T05:59:46.165Z,13.65
2017-02-17T06:00:55.168Z,13.69
2017-02-17T06:02:04.187Z,13.84
2017-02-17T06:03:13.233Z,14.19
2017-02-17T06:04:22.243Z,14.49
2017-02-17T06:05:31.258Z,14.68
2017-02-17T06:06:40.691Z,14.87
2017-02-17T06:07:49.716Z,14.94
2017-02-17T06:08:58.732Z,14.94
2017-02-17T06:10:07.737Z,15.04
2017-02-17T06:11:17.187Z,15.01
2017-02-17T06:12:26.229Z,15.11
2017-02-17T06:13:35.245Z,15.16
2017-02-17T06:14:44.277Z,15.31
2017-02-17T06:15:53.280Z,15.24
2017-02-17T06:17:02.314Z,15.33
2017-02-17T06:18:11.737Z,15.38
2017-02-17T06:19:20.769Z,15.41
2017-02-17T06:20:29.784Z,15.36
2017-02-17T06:21:38.807Z,15.44
2017-02-17T06:22:48.250Z,15.42
2017-02-17T06:23:57.264Z,15.41
2017-02-17T06:25:06.305Z,15.45
2017-02-17T06:26:15.316Z,15.52
2017-02-17T06:27:24.335Z,15.45
2017-02-17T06:28:33.350Z,15.49
2017-02-17T06:29:42.351Z,15.46
2017-02-17T06:30:51.362Z,15.53
2017-02-17T06:32:00.352Z,15.42
2017-02-17T06:33:09.369Z,15.49
2017-02-17T06:34:18.801Z,15.55
2017-02-17T06:35:27.837Z,15.63
2017-02-17T06:36:36.896Z,15.66
2017-02-17T06:37:45.917Z,15.59
2017-02-17T06:38:54.940Z,15.61
2017-02-17T06:40:03.984Z,15.7
2017-02-17T06:41:13.005Z,15.71
2017-02-17T06:42:22.007Z,15.71
2017-02-17T06:43:31.037Z,15.63
2017-02-17T06:44:40.049Z,15.67
2017-02-17T06:45:49.073Z,15.66
2017-02-17T06:46:58.113Z,15.79
2017-02-17T06:48:07.540Z,15.71
2017-02-17T06:49:16.533Z,15.84
2017-02-17T06:50:25.564Z,15.73
2017-02-17T06:51:35.019Z,15.78
2017-02-17T06:52:44.038Z,15.89
2017-02-17T06:53:53.879Z,15.88
2017-02-17T06:55:02.902Z,15.92
2017-02-17T06:56:11.906Z,15.97
2017-02-17T06:57:20.953Z,15.89
2017-02-17T06:58:29.981Z,16
2017-02-17T06:59:38.997Z,15.96
2017-02-17T07:00:48.008Z,16
2017-02-17T07:01:57.010Z,16.01
2017-02-17T07:03:06.032Z,15.99
2017-02-17T07:04:15.042Z,16.03
2017-02-17T07:05:24.065Z,16.03
2017-02-17T07:06:33.083Z,15.97
2017-02-17T07:07:42.096Z,16.07
2017-02-17T07:08:51.108Z,16.11
2017-02-17T07:10:00.131Z,16.09
2017-02-17T07:11:09.158Z,16.15
2017-02-17T07:12:18.160Z,16.11
2017-02-17T07:13:27.164Z,16.18
2017-02-17T07:14:36.601Z,16.11
2017-02-17T07:15:46.041Z,16.1
2017-02-17T07:16:55.039Z,16.18
2017-02-17T07:18:04.459Z,16.14
2017-02-17T07:19:13.478Z,16.14
2017-02-17T07:20:22.496Z,16.22
2017-02-17T07:21:31.495Z,16.22
2017-02-17T07:22:40.516Z,16.22
2017-02-17T07:23:49.543Z,16.26
2017-02-17T07:24:58.543Z,16.2
2017-02-17T07:26:07.970Z,16.23
2017-02-17T07:27:16.976Z,16.23
2017-02-17T07:28:26.000Z,16.27
2017-02-17T07:29:35.020Z,16.27
2017-02-17T07:30:44.037Z,16.23
2017-02-17T07:31:53.088Z,16.27
2017-02-17T07:33:02.120Z,16.2
2017-02-17T07:34:11.128Z,16.32
2017-02-17T07:35:20.147Z,16.22
2017-02-17T07:36:29.273Z,16.17
2017-02-17T07:37:38.287Z,16.3
2017-02-17T07:38:47.297Z,16.22
2017-02-17T07:39:56.327Z,16.3
2017-02-17T07:41:05.354Z,16.22
2017-02-17T07:42:14.418Z,16.35
2017-02-17T07:43:23.431Z,16.34
2017-02-17T07:44:32.877Z,16.35
2017-02-17T07:45:41.900Z,16.34
2017-02-17T07:46:50.912Z,16.32
2017-02-17T07:47:59.941Z,16.34
2017-02-17T07:49:08.973Z,16.38
2017-02-17T07:50:18.013Z,16.3
2017-02-17T07:51:27.021Z,16.3
2017-02-17T07:52:36.027Z,16.35
2017-02-17T07:53:45.453Z,16.35
2017-02-17T07:54:54.478Z,16.41
2017-02-17T07:56:03.497Z,16.3
2017-02-17T07:57:12.514Z,16.41
2017-02-17T07:58:21.544Z,16.38
2017-02-17T07:59:30.571Z,16.32
2017-02-17T08:00:39.587Z,16.35
2017-02-17T08:01:48.614Z,16.38
2017-02-17T08:02:57.654Z,16.45
2017-02-17T08:04:06.667Z,16.55
2017-02-17T08:05:15.747Z,16.41
2017-02-17T08:06:24.759Z,16.48
2017-02-17T08:07:33.789Z,16.48
2017-02-17T08:08:42.825Z,16.45
2017-02-17T08:09:51.845Z,16.45
2017-02-17T08:11:01.315Z,16.48
2017-02-17T08:12:10.332Z,16.47
2017-02-17T08:13:19.328Z,16.47
2017-02-17T08:14:28.345Z,16.38
2017-02-17T08:15:37.362Z,16.4
2017-02-17T08:16:46.377Z,16.42
2017-02-17T08:17:55.416Z,16.41
2017-02-17T08:19:04.435Z,16.41
2017-02-17T08:20:13.459Z,16.44
2017-02-17T08:21:22.494Z,16.42
2017-02-17T08:22:31.513Z,16.41
2017-02-17T08:23:40.961Z,16.41
2017-02-17T08:24:50.399Z,16.42
2017-02-17T08:25:59.422Z,16.42
2017-02-17T08:27:08.454Z,16.4
2017-02-17T08:28:17.464Z,16.47
2017-02-17T08:29:26.484Z,16.42
2017-02-17T08:30:35.505Z,16.48
2017-02-17T08:31:44.521Z,16.44
2017-02-17T08:32:53.540Z,16.41
2017-02-17T08:34:02.565Z,16.41
2017-02-17T08:35:11.593Z,16.5
2017-02-17T08:36:20.627Z,16.53
2017-02-17T08:37:30.072Z,16.55
2017-02-17T08:38:39.103Z,16.5
2017-02-17T08:39:48.096Z,16.6
2017-02-17T08:40:57.131Z,16.53
2017-02-17T08:42:06.166Z,16.59
2017-02-17T08:43:15.193Z,16.56
2017-02-17T08:44:24.211Z,16.5
2017-02-17T08:45:33.242Z,16.59
2017-02-17T08:46:42.248Z,16.55
2017-02-17T08:47:51.262Z,16.55
2017-02-17T08:49:00.293Z,16.59
2017-02-17T08:50:09.324Z,16.58
2017-02-17T08:51:18.322Z,16.58
2017-02-17T08:52:27.349Z,16.65
2017-02-17T08:53:36.366Z,16.6
2017-02-17T08:54:45.787Z,16.66
2017-02-17T08:55:54.823Z,16.65
2017-02-17T08:57:03.844Z,16.66
2017-02-17T08:58:12.840Z,16.62
2017-02-17T08:59:21.860Z,16.66
2017-02-17T09:00:30.888Z,16.6
2017-02-17T09:01:39.897Z,16.66
2017-02-17T09:02:48.914Z,16.66
2017-02-17T09:03:57.956Z,16.67
2017-02-17T09:05:06.976Z,16.67
2017-02-17T09:06:16.005Z,16.66
2017-02-17T09:07:25.024Z,16.65
2017-02-17T09:08:34.035Z,16.69
2017-02-17T09:09:43.067Z,16.6
2017-02-17T09:10:52.092Z,16.66
2017-02-17T09:12:01.087Z,16.69
2017-02-17T09:13:10.946Z,16.69
2017-02-17T09:14:20.006Z,16.65
2017-02-17T09:15:29.464Z,16.73
2017-02-17T09:16:38.471Z,16.63
2017-02-17T09:17:47.505Z,16.69
2017-02-17T09:18:56.532Z,16.69
2017-02-17T09:20:05.549Z,16.66
2017-02-17T09:21:14.568Z,16.66
2017-02-17T09:22:23.588Z,16.71
2017-02-17T09:23:33.036Z,16.74
2017-02-17T09:24:42.042Z,16.66
2017-02-17T09:25:51.062Z,16.77
2017-02-17T09:27:00.082Z,16.78
2017-02-17T09:28:09.088Z,16.78
2017-02-17T09:29:18.092Z,16.74
2017-02-17T09:30:27.100Z,16.8
2017-02-17T09:31:36.123Z,16.78
2017-02-17T09:32:45.144Z,16.74
2017-02-17T09:33:54.175Z,16.71
2017-02-17T09:35:03.207Z,16.78
2017-02-17T09:36:12.631Z,16.75
2017-02-17T09:37:21.637Z,16.74
2017-02-17T09:38:30.658Z,16.75
2017-02-17T09:39:40.077Z,16.81
2017-02-17T09:40:49.093Z,16.77
2017-02-17T09:41:58.124Z,16.81
2017-02-17T09:43:07.155Z,16.75
2017-02-17T09:44:16.188Z,16.75
2017-02-17T09:45:25.233Z,16.8
2017-02-17T09:46:34.233Z,16.82
2017-02-17T09:47:43.256Z,16.81
2017-02-17T09:48:52.275Z,16.81
2017-02-17T09:50:01.287Z,16.81
2017-02-17T09:51:10.731Z,16.85
2017-02-17T09:52:19.763Z,16.85
2017-02-17T09:53:28.771Z,16.89
2017-02-17T09:54:37.783Z,16.92
2017-02-17T09:55:46.807Z,16.92
2017-02-17T09:56:55.840Z,16.81
2017-02-17T09:58:04.858Z,16.85
2017-02-17T09:59:13.872Z,16.84
2017-02-17T10:00:22.877Z,16.92
2017-02-17T10:01:31.891Z,16.89
2017-02-17T10:02:40.911Z,16.92
2017-02-17T10:03:49.942Z,16.92
2017-02-17T10:04:58.953Z,16.93
2017-02-17T10:06:08.024Z,16.92
2017-02-17T10:07:17.036Z,16.92
2017-02-17T10:08:26.053Z,16.95
2017-02-17T10:09:35.077Z,16.98
2017-02-17T10:10:44.090Z,16.92
2017-02-17T10:11:53.104Z,16.92
2017-02-17T10:13:02.124Z,16.89
2017-02-17T10:14:11.173Z,16.96
2017-02-17T10:15:20.630Z,16.92
2017-02-17T10:16:29.643Z,16.93
2017-02-17T10:17:38.669Z,16.85
2017-02-17T10:18:47.685Z,16.87
2017-02-17T10:19:56.757Z,16.93
2017-02-17T10:21:05.771Z,16.87
2017-02-17T10:22:14.775Z,16.81
2017-02-17T10:23:23.848Z,16.95
2017-02-17T10:24:32.888Z,16.92
2017-02-17T10:25:41.890Z,16.82
2017-02-17T10:26:50.918Z,16.87
2017-02-17T10:27:59.922Z,16.96
2017-02-17T10:29:08.969Z,16.9
2017-02-17T10:30:17.996Z,16.95
2017-02-17T10:31:27.022Z,16.9
2017-02-17T10:32:36.033Z,16.92
2017-02-17T10:33:45.047Z,16.9
2017-02-17T10:34:54.085Z,16.96
2017-02-17T10:36:03.506Z,16.92
2017-02-17T10:37:12.990Z,16.92
2017-02-17T10:38:22.008Z,16.98
2017-02-17T10:39:31.066Z,16.98
2017-02-17T10:40:40.107Z,16.95
2017-02-17T10:41:49.131Z,16.92
2017-02-17T10:42:58.159Z,16.9
2017-02-17T10:44:07.182Z,17.02
2017-02-17T10:45:16.214Z,16.95
2017-02-17T10:46:25.230Z,16.95
2017-02-17T10:47:34.253Z,16.98
2017-02-17T10:48:43.270Z,16.95
2017-02-17T10:49:52.304Z,16.96
2017-02-17T10:51:01.343Z,16.95
2017-02-17T10:52:10.378Z,16.92
2017-02-17T10:53:19.389Z,16.84
2017-02-17T10:54:28.401Z,16.89
2017-02-17T10:55:37.409Z,16.89
2017-02-17T10:56:46.428Z,16.87
2017-02-17T10:57:55.449Z,16.84
2017-02-17T10:59:04.493Z,16.78
2017-02-17T11:00:13.535Z,16.87
2017-02-17T11:01:22.971Z,16.89
2017-02-17T11:02:32.003Z,16.89
2017-02-17T11:03:41.023Z,16.9
2017-02-17T11:04:50.051Z,16.93
2017-02-17T11:05:59.058Z,16.85
2017-02-17T11:07:08.086Z,16.98
2017-02-17T11:08:17.093Z,16.9
2017-02-17T11:09:26.111Z,17
2017-02-17T11:10:35.124Z,16.9
2017-02-17T11:11:44.557Z,16.95
2017-02-17T11:12:53.584Z,17
2017-02-17T11:14:02.584Z,16.85
2017-02-17T11:15:11.594Z,16.98
2017-02-17T11:16:20.624Z,16.95
2017-02-17T11:17:29.643Z,16.96
2017-02-17T11:18:38.653Z,16.84
2017-02-17T11:19:47.680Z,16.82
2017-02-17T11:20:56.711Z,16.9
2017-02-17T11:22:05.725Z,16.81
2017-02-17T11:23:14.755Z,16.78
2017-02-17T11:24:24.241Z,16.92
2017-02-17T11:25:33.267Z,16.9
2017-02-17T11:26:42.293Z,16.84
2017-02-17T11:27:51.750Z,16.92
2017-02-17T11:29:00.761Z,16.93
2017-02-17T11:30:09.802Z,16.9
2017-02-17T11:31:18.816Z,16.92
2017-02-17T11:32:27.821Z,16.92
2017-02-17T11:33:36.838Z,16.95
2017-02-17T11:34:45.861Z,16.92
2017-02-17T11:35:54.877Z,16.92
2017-02-17T11:37:03.899Z,16.9
2017-02-17T11:38:12.919Z,16.9
2017-02-17T11:39:21.943Z,16.9
2017-02-17T11:40:30.960Z,16.92
2017-02-17T11:41:39.983Z,16.95
2017-02-17T11:42:49.012Z,16.95
2017-02-17T11:43:58.030Z,16.89
2017-02-17T11:45:07.051Z,16.95
2017-02-17T11:46:16.086Z,16.95
2017-02-17T11:47:25.099Z,16.89
2017-02-17T11:48:34.129Z,17.03
2017-02-17T11:49:43.133Z,16.95
2017-02-17T11:50:52.184Z,16.99
2017-02-17T11:52:01.214Z,16.99
2017-02-17T11:53:10.238Z,17.02
2017-02-17T11:54:19.257Z,16.92
2017-02-17T11:55:28.305Z,17.02
2017-02-17T11:56:37.749Z,17
2017-02-17T11:57:46.799Z,16.93
2017-02-17T11:58:55.819Z,17.02
2017-02-17T12:00:04.838Z,16.98
2017-02-17T12:01:14.271Z,16.93
2017-02-17T12:02:23.307Z,17
2017-02-17T12:03:32.500Z,16.92
2017-02-17T12:04:41.527Z,16.93
2017-02-17T12:05:50.551Z,16.92
2017-02-17T12:06:59.600Z,16.87
2017-02-17T12:08:09.036Z,16.96
2017-02-17T12:09:18.045Z,16.98
2017-02-17T12:10:27.078Z,16.99
2017-02-17T12:11:36.524Z,17
2017-02-17T12:12:45.947Z,16.9
2017-02-17T12:13:54.961Z,16.92
2017-02-17T12:15:04.062Z,16.95
2017-02-17T12:16:13.086Z,16.95
2017-02-17T12:17:22.117Z,16.95
2017-02-17T12:18:31.147Z,16.95
2017-02-17T12:19:40.161Z,16.99
2017-02-17T12:20:49.180Z,16.96
2017-02-17T12:21:58.211Z,17.06
2017-02-17T12:23:07.230Z,17.05
2017-02-17T12:24:16.261Z,16.99
2017-02-17T12:25:25.279Z,17.05
2017-02-17T12:26:34.298Z,16.92
2017-02-17T12:27:43.331Z,17.08
2017-02-17T12:28:52.369Z,17.02
2017-02-17T12:30:01.382Z,17.1
2017-02-17T12:31:10.387Z,17.08
2017-02-17T12:32:19.416Z,17.11
2017-02-17T12:33:28.421Z,17.02
2017-02-17T12:34:37.443Z,17.02
2017-02-17T12:35:46.467Z,17.15
2017-02-17T12:36:55.490Z,17.15
2017-02-17T12:38:04.492Z,17.13
2017-02-17T12:39:13.530Z,17.03
2017-02-17T12:40:22.544Z,17.06
2017-02-17T12:41:31.563Z,17.02
2017-02-17T12:42:40.584Z,17.03
2017-02-17T12:43:50.001Z,16.98
2017-02-17T12:44:59.045Z,16.98
2017-02-17T12:46:08.489Z,16.95
2017-02-17T12:47:17.522Z,16.98
2017-02-17T12:48:26.539Z,17.06
2017-02-17T12:49:35.569Z,17
2017-02-17T12:50:44.590Z,16.96
2017-02-17T12:51:53.612Z,16.98
2017-02-17T12:53:02.627Z,17
2017-02-17T12:54:11.642Z,16.99
2017-02-17T12:55:20.674Z,16.96
2017-02-17T12:56:29.712Z,16.99
2017-02-17T12:57:38.723Z,16.98
2017-02-17T12:58:47.733Z,16.99
2017-02-17T12:59:56.732Z,17.02
2017-02-17T13:01:06.160Z,16.96
2017-02-17T13:02:15.191Z,16.96
2017-02-17T13:03:25.027Z,16.99
2017-02-17T13:04:34.069Z,16.95
2017-02-17T13:05:43.078Z,16.93
2017-02-17T13:06:52.091Z,16.89
2017-02-17T13:08:01.117Z,16.99
2017-02-17T13:09:10.140Z,16.95
2017-02-17T13:10:19.170Z,16.98
2017-02-17T13:11:28.590Z,16.98
2017-02-17T13:12:37.602Z,17.06
2017-02-17T13:13:46.638Z,17.02
2017-02-17T13:14:55.647Z,17.11
2017-02-17T13:16:04.669Z,17.08
2017-02-17T13:17:13.691Z,17.08
2017-02-17T13:18:23.165Z,16.98
2017-02-17T13:19:32.199Z,16.99
2017-02-17T13:20:41.213Z,17.08
2017-02-17T13:21:50.222Z,17.06
2017-02-17T13:22:59.238Z,17
2017-02-17T13:24:08.252Z,16.96
2017-02-17T13:25:17.279Z,16.95
2017-02-17T13:26:26.277Z,16.99
2017-02-17T13:27:35.291Z,16.96
2017-02-17T13:28:44.317Z,16.99
2017-02-17T13:29:53.332Z,16.99
2017-02-17T13:31:02.339Z,16.95
2017-02-17T13:32:11.347Z,16.96
2017-02-17T13:33:20.779Z,17
2017-02-17T13:34:29.792Z,16.95
2017-02-17T13:35:38.844Z,16.95
2017-02-17T13:36:48.301Z,16.99
2017-02-17T13:37:57.350Z,16.92
2017-02-17T13:39:06.369Z,16.96
2017-02-17T13:40:15.401Z,16.87
2017-02-17T13:41:24.419Z,16.87
2017-02-17T13:42:33.455Z,16.89
2017-02-17T13:43:42.476Z,16.98
2017-02-17T13:44:51.497Z,16.92
2017-02-17T13:46:00.918Z,16.8
2017-02-17T13:47:09.951Z,16.93
2017-02-17T13:48:19.426Z,16.84
2017-02-17T13:49:28.457Z,16.9
2017-02-17T13:50:37.900Z,16.82
2017-02-17T13:51:46.940Z,16.84
2017-02-17T13:52:55.965Z,16.95
2017-02-17T13:54:04.989Z,16.81
2017-02-17T13:55:13.999Z,16.93
2017-02-17T13:56:22.998Z,16.87
2017-02-17T13:57:32.011Z,16.84
2017-02-17T13:58:41.030Z,16.85
2017-02-17T13:59:50.488Z,16.82
2017-02-17T14:00:59.509Z,16.82
2017-02-17T14:02:08.521Z,16.82
2017-02-17T14:03:17.534Z,16.85
2017-02-17T14:04:26.552Z,16.85
2017-02-17T14:05:35.577Z,16.85
2017-02-17T14:06:44.575Z,16.8
2017-02-17T14:07:53.618Z,16.74
2017-02-17T14:09:02.620Z,16.66
2017-02-17T14:10:11.657Z,16.75
2017-02-17T14:11:20.717Z,16.74
2017-02-17T14:12:29.759Z,16.74
2017-02-17T14:13:38.784Z,16.78
2017-02-17T14:14:47.814Z,16.82
2017-02-17T14:15:56.836Z,16.78
2017-02-17T14:17:05.832Z,16.75
2017-02-17T14:18:14.846Z,16.73
2017-02-17T14:19:23.882Z,16.77
2017-02-17T14:20:32.892Z,16.75
2017-02-17T14:21:42.341Z,16.77
2017-02-17T14:22:51.372Z,16.73
2017-02-17T14:24:00.401Z,16.74
2017-02-17T14:25:09.418Z,16.78
2017-02-17T14:26:18.436Z,16.78
2017-02-17T14:27:27.875Z,16.71
2017-02-17T14:28:36.884Z,16.66
2017-02-17T14:29:46.309Z,16.71
2017-02-17T14:30:55.332Z,16.69
2017-02-17T14:32:04.377Z,16.65
2017-02-17T14:33:13.390Z,16.62
2017-02-17T14:34:22.397Z,16.63
2017-02-17T14:35:31.415Z,16.63
2017-02-17T14:36:40.456Z,16.58
2017-02-17T14:37:49.465Z,16.55
2017-02-17T14:38:58.484Z,16.6
2017-02-17T14:40:07.521Z,16.55
2017-02-17T14:41:16.532Z,16.56
2017-02-17T14:42:25.548Z,16.65
2017-02-17T14:43:34.978Z,16.63
2017-02-17T14:44:43.993Z,16.59
2017-02-17T14:45:52.998Z,16.58
2017-02-17T14:47:02.028Z,16.65
2017-02-17T14:48:11.032Z,16.6
2017-02-17T14:49:20.042Z,16.63
2017-02-17T14:50:29.089Z,16.63
2017-02-17T14:51:38.117Z,16.6
2017-02-17T14:52:47.559Z,16.62
2017-02-17T14:53:56.561Z,16.6